Data for 04/13/2006

Time Sea-Level Adjusted Pressure Absolute Pressure Temperature Relative Humidity Dew Point   
(mb) (inHg) (mb) (inHg) (C) (F) (%) (C) (F)
00:05 1015 29.97 844 24.92 12.4 54.4 46 1.2 34.1
00:10 1015 29.97 844 24.92 12.4 54.4 46 1 33.9
00:15 1015 29.97 844 24.92 12.5 54.5 45 1.1 34
00:20 1015 29.97 844 24.92 12.5 54.5 46 1.1 34.1
00:25 1015 29.97 844 24.92 12.5 54.4 46 1.2 34.2
00:30 1015 29.97 844 24.92 12.4 54.3 47 1.4 34.6
00:35 1015 29.97 844 24.92 12.3 54.1 48 1.6 34.9
00:40 1015 29.97 844 24.92 12.1 53.7 49 1.6 34.9
00:45 1015 29.97 844 24.92 12 53.6 49 1.6 34.9
00:50 1015 29.97 844 24.92 12 53.7 47 1.2 34.2
00:55 1015 29.97 844 24.92 12.2 53.9 47 1.3 34.3
01:00 1015 29.97 844 24.92 12.2 53.9 47 1.3 34.3
01:05 1015 29.97 844 24.92 12.1 53.9 47 1.4 34.4
01:10 1015 29.97 844 24.92 11.9 53.4 49 1.5 34.8
01:15 1015 29.97 844 24.92 11.8 53.2 49 1.5 34.8
01:20 1015 29.97 844 24.92 11.7 53.1 50 1.7 35
01:25 1015 29.97 844 24.92 11.6 53 50 1.5 34.8
01:30 1015 29.97 844 24.92 11.6 52.9 49 1.4 34.5
01:35 1015 29.97 844 24.92 11.7 53 49 1.4 34.5
01:40 1015 29.97 844 24.92 11.6 52.9 49 1.4 34.5
01:45 1015 29.97 844 24.92 11.6 52.8 50 1.5 34.6
01:50 1015 29.97 844 24.92 11.5 52.7 51 1.8 35.3
01:55 1014 29.94 844 24.92 11.1 52 52 1.7 35
02:00 1015 29.97 844 24.92 11.1 52 52 1.6 34.8
02:05 1015 29.97 844 24.92 11.1 52 52 1.7 35
02:10 1014 29.94 844 24.92 11.1 51.9 52 1.7 35
02:15 1014 29.94 844 24.92 11.1 52 52 1.8 35.2
02:20 1014 29.94 844 24.92 11.1 51.9 53 1.9 35.3
02:25 1014 29.94 844 24.92 10.9 51.6 54 1.9 35.5
02:30 1014 29.94 844 24.92 10.8 51.4 54 1.9 35.4
02:35 1014 29.94 844 24.92 10.8 51.4 54 1.9 35.4
02:40 1014 29.94 844 24.92 10.8 51.4 54 1.9 35.4
02:45 1014 29.94 843 24.89 10.8 51.4 54 2 35.6
02:50 1014 29.94 843 24.89 10.7 51.2 55 2 35.5
02:55 1014 29.94 843 24.89 10.6 51 55 2 35.5
03:00 1014 29.94 843 24.89 10.5 50.9 55 2 35.6
03:05 1014 29.94 843 24.89 10.4 50.8 55 1.7 35.1
03:10 1014 29.94 843 24.89 10.5 50.8 55 1.8 35.3
03:15 1014 29.94 843 24.89 10.5 51 55 1.8 35.3
03:20 1014 29.94 843 24.89 10.5 51 54 1.7 35
03:25 1014 29.94 843 24.89 10.6 51 54 1.7 35.1
03:30 1014 29.94 843 24.89 10.4 50.7 55 1.7 35.1
03:35 1014 29.94 843 24.89 10.3 50.6 54 1.5 34.8
03:40 1014 29.94 843 24.89 10.2 50.4 55 1.6 34.8
03:45 1014 29.94 843 24.89 10.1 50.2 54 1.4 34.4
03:50 1014 29.94 843 24.89 10.2 50.3 54 1.4 34.5
03:55 1014 29.94 843 24.89 10.1 50.2 54 1.4 34.5
04:00 1014 29.94 843 24.89 10 49.9 54 1.2 34.2
04:05 1014 29.94 843 24.89 10.1 50.1 53 1 33.8
04:10 1013 29.91 843 24.89 10 50.1 54 1.2 34.1
04:15 1013 29.91 843 24.89 9.9 49.8 54 1.2 34.1
04:20 1014 29.94 843 24.89 9.8 49.6 54 1.1 33.9
04:25 1013 29.91 843 24.89 9.6 49.3 56 1.3 34.3
04:30 1013 29.91 843 24.89 9.2 48.5 59 1.5 34.7
04:35 1014 29.94 843 24.89 8.7 47.6 61 1.5 34.8
04:40 1014 29.94 843 24.89 8.6 47.5 58 0.9 33.7
04:45 1013 29.91 843 24.89 9 48.2 57 1 33.7
04:50 1013 29.91 843 24.89 9.2 48.6 55 0.8 33.4
04:55 1013 29.91 843 24.89 9.4 48.8 55 0.7 33.3
05:00 1013 29.91 843 24.89 9.2 48.5 57 1.1 33.9
05:05 1014 29.94 843 24.89 8.9 47.9 59 1.2 34.2
05:10 1014 29.94 843 24.89 8.6 47.5 58 0.9 33.7
05:15 1014 29.94 843 24.89 8.9 48 55 0.5 32.8
05:20 1013 29.91 843 24.89 9.3 48.7 56 0.9 33.6
05:25 1013 29.91 843 24.89 9.3 48.8 55 0.7 33.3
05:30 1013 29.91 843 24.89 9.3 48.7 54 0.5 32.9
05:35 1013 29.91 843 24.89 9.4 48.8 53 0.2 32.4
05:40 1013 29.91 843 24.89 9.6 49.3 51 0 32.1
05:45 1013 29.91 843 24.89 9.8 49.6 50 -0.1 31.8
05:50 1014 29.94 843 24.89 10 49.9 49 -0.2 31.6
05:55 1014 29.94 843 24.89 10.2 50.4 48 -0.3 31.4
06:00 1014 29.94 843 24.89 10.4 50.8 48 -0 32
06:05 1014 29.94 843 24.89 10.2 50.4 47 -0.4 31.3
06:10 1014 29.94 843 24.89 10.4 50.7 48 -0.1 31.8
06:15 1014 29.94 843 24.89 10.4 50.7 47 -0.5 31.2
06:20 1014 29.94 843 24.89 10.6 51.1 47 -0.2 31.7
06:25 1014 29.94 843 24.89 10.7 51.2 45 -0.8 30.5
06:30 1014 29.94 843 24.89 11.4 52.5 41 -1.3 29.7
06:35 1014 29.94 843 24.89 11.9 53.3 42 -0.7 30.7
06:40 1014 29.94 843 24.89 11.7 53 43 -0.6 30.9
06:45 1014 29.94 843 24.89 11.5 52.7 44 -0.3 31.4
06:50 1014 29.94 843 24.89 11.3 52.4 44 -0.4 31.4
06:55 1014 29.94 843 24.89 11.1 52 45 -0.4 31.2
07:00 1014 29.94 843 24.89 10.9 51.7 45 -0.4 31.3
07:05 1014 29.94 843 24.89 10.9 51.6 46 -0.3 31.5
07:10 1014 29.94 843 24.89 10.9 51.6 47 0.2 32.3
07:15 1014 29.94 843 24.89 10.9 51.5 48 0.3 32.5
07:20 1014 29.94 843 24.89 10.8 51.5 49 0.6 33
07:25 1014 29.94 843 24.89 10.7 51.2 49 0.4 32.7
07:30 1014 29.94 843 24.89 10.8 51.4 48 0.2 32.3
07:35 1014 29.94 843 24.89 10.9 51.6 48 0.3 32.5
07:40 1014 29.94 843 24.89 10.9 51.6 49 0.7 33.2
07:45 1014 29.94 843 24.89 10.7 51.2 49 0.5 33
07:50 1014 29.94 843 24.89 10.6 51.2 50 0.6 33.2
07:55 1014 29.94 843 24.89 10.6 51.1 50 0.6 33
08:00 1014 29.94 843 24.89 10.6 51.1 49 0.4 32.8
08:05 1014 29.94 844 24.92 10.7 51.3 48 0.3 32.6
08:10 1015 29.97 844 24.92 10.8 51.5 48 0.3 32.6
08:15 1015 29.97 844 24.92 11 51.7 48 0.4 32.6
08:20 1015 29.97 844 24.92 11.1 51.9 46 0 32
08:25 1015 29.97 844 24.92 11.4 52.5 47 0.5 32.8
08:30 1015 29.97 844 24.92 11.4 52.6 46 0.4 32.8
08:35 1015 29.97 844 24.92 11.5 52.6 47 0.6 33.1
08:40 1015 29.97 844 24.92 11.4 52.5 48 0.9 33.7
08:45 1015 29.97 844 24.92 11.4 52.4 48 0.8 33.5
08:50 1015 29.97 844 24.92 11.4 52.5 48 0.8 33.4
08:55 1015 29.97 844 24.92 11.4 52.6 48 0.9 33.6
09:00 1015 29.97 844 24.92 11.5 52.7 47 0.6 33.1
09:05 1015 29.97 844 24.92 11.6 52.8 47 0.7 33.3
09:10 1015 29.97 844 24.92 11.6 52.9 48 1.1 34
09:15 1015 29.97 844 24.92 11.7 53 47 0.8 33.4
09:20 1015 29.97 844 24.92 11.7 53.1 47 1 33.7
09:25 1015 29.97 844 24.92 11.9 53.3 45 0.4 32.8
09:30 1015 29.97 844 24.92 12 53.6 45 0.5 32.9
09:35 1015 29.97 844 24.92 12.2 53.9 45 0.6 33
09:40 1015 29.97 844 24.92 12.5 54.4 43 0.3 32.6
09:45 1014 29.94 844 24.92 12.9 55.1 42 0.5 32.9
09:50 1014 29.94 844 24.92 12.8 55 41 -0 32
09:55 1014 29.94 843 24.89 12.8 55 42 0.1 32.3
10:00 1014 29.94 843 24.89 12.7 54.9 43 0.4 32.7
10:05 1014 29.94 843 24.89 12.5 54.6 43 0.5 32.9
10:10 1014 29.94 843 24.89 12.8 55 40 -0.3 31.4
10:15 1014 29.94 843 24.89 13.1 55.5 41 0 32.1
10:20 1014 29.94 844 24.92 13.4 56.2 38 -0.6 31
10:25 1014 29.94 844 24.92 13.5 56.2 36 -1.2 29.9
10:30 1014 29.94 844 24.92 13.7 56.6 38 -0.4 31.2
10:35 1014 29.94 844 24.92 13.8 56.8 36 -0.9 30.3
10:40 1014 29.94 844 24.92 14 57.1 37 -0.5 31.1
10:45 1014 29.94 844 24.92 14 57.1 35 -1.2 29.8
10:50 1014 29.94 844 24.92 13.9 57.1 33 -1.9 28.5
10:55 1014 29.94 844 24.92 13.9 57.1 34 -1.6 29
11:00 1014 29.94 844 24.92 13.9 56.9 33 -2.1 28.2
11:05 1014 29.94 844 24.92 14 57.1 34 -1.4 29.5
11:10 1014 29.94 843 24.89 13.7 56.7 34 -1.8 28.8
11:15 1014 29.94 843 24.89 13.9 57 33 -2 28.4
11:20 1014 29.94 843 24.89 14.1 57.4 33 -1.8 28.8
11:25 1014 29.94 843 24.89 14.2 57.5 34 -1.4 29.5
11:30 1014 29.94 843 24.89 14.3 57.8 34 -1.2 29.9
11:35 1014 29.94 843 24.89 14.5 58.2 34 -1 30.1
11:40 1014 29.94 843 24.89 15 59 32 -1.5 29.4
11:45 1014 29.94 843 24.89 14.8 58.6 33 -1.3 29.7
11:50 1014 29.94 843 24.89 15.1 59.2 33 -1 30.1
11:55 1014 29.94 844 24.92 15.2 59.4 33 -0.7 30.8
12:00 1014 29.94 844 24.92 15 59 33 -1 30.1
12:05 1014 29.94 844 24.92 15.3 59.5 32 -1.3 29.7
12:10 1014 29.94 844 24.92 15.3 59.5 34 -0.5 31.1
12:15 1014 29.94 844 24.92 15.6 60.1 31 -1.4 29.6
12:20 1014 29.94 844 24.92 15.5 59.8 31 -1.3 29.6
12:25 1014 29.94 844 24.92 15.2 59.3 32 -1.5 29.4
12:30 1014 29.94 844 24.92 14.6 58.4 32 -1.9 28.5
12:35 1014 29.94 844 24.92 14.7 58.5 30 -2.5 27.6
12:40 1014 29.94 844 24.92 15.1 59.3 30 -2.4 27.7
12:45 1014 29.94 843 24.89 14.9 58.8 29 -2.7 27.1
12:50 1014 29.94 844 24.92 15 58.9 30 -2.5 27.6
12:55 1014 29.94 844 24.92 14.9 58.8 29 -3 26.7
13:00 1014 29.94 843 24.89 14.8 58.7 29 -3.1 26.4
13:05 1014 29.94 843 24.89 15.1 59.1 29 -2.8 26.9
13:10 1014 29.94 843 24.89 15.3 59.5 29 -2.7 27.1
13:15 1014 29.94 843 24.89 15.5 59.9 28 -3 26.7
13:20 1014 29.94 843 24.89 15.5 59.9 27 -3.1 26.3
13:25 1014 29.94 843 24.89 15.7 60.3 28 -2.7 27.2
13:30 1014 29.94 843 24.89 15.5 59.8 29 -2.3 27.8
13:35 1014 29.94 843 24.89 15.5 59.8 30 -2.1 28.2
13:40 1014 29.94 843 24.89 15.3 59.5 30 -2.1 28.2
13:45 1014 29.94 843 24.89 15.2 59.3 30 -2.2 28
13:50 1014 29.94 843 24.89 15.2 59.3 32 -1.5 29.3
13:55 1014 29.94 843 24.89 14.7 58.4 40 1.2 34.2
14:00 1014 29.94 843 24.89 14 57.2 42 1.3 34.4
14:05 1014 29.94 843 24.89 13.4 56.1 44 1.4 34.6
14:10 1014 29.94 843 24.89 13.6 56.4 43 1.2 34.1
14:15 1014 29.94 843 24.89 13.5 56.3 42 0.8 33.5
14:20 1014 29.94 843 24.89 13.5 56.3 41 0.7 33.3
14:25 1014 29.94 843 24.89 13.5 56.3 41 0.7 33.2
14:30 1014 29.94 843 24.89 13.6 56.4 41 0.7 33.2
14:35 1014 29.94 843 24.89 13.4 56.1 42 0.8 33.4
14:40 1014 29.94 843 24.89 13.5 56.3 41 0.7 33.3
14:45 1014 29.94 843 24.89 13.4 56.2 42 0.7 33.3
14:50 1014 29.94 843 24.89 13.3 55.9 42 0.7 33.2
14:55 1014 29.94 843 24.89 13.5 56.2 41 0.7 33.3
15:00 1014 29.94 843 24.89 13.7 56.6 41 0.7 33.2
15:05 1014 29.94 843 24.89 14 57.1 41 0.9 33.6
15:10 1014 29.94 843 24.89 14 57.2 40 0.7 33.3
15:15 1014 29.94 843 24.89 14.1 57.3 40 0.6 33.1
15:20 1014 29.94 843 24.89 14.2 57.5 39 0.5 33
15:25 1014 29.94 843 24.89 14.4 58 36 -0.2 31.6
15:30 1014 29.94 843 24.89 14.7 58.5 35 -0.4 31.4
15:35 1014 29.94 843 24.89 14.9 58.8 35 -0.5 31.1
15:40 1014 29.94 843 24.89 15.2 59.4 33 -1 30.3
15:45 1014 29.94 843 24.89 15.4 59.8 32 -1.2 29.9
15:50 1014 29.94 843 24.89 15.6 60 32 -0.8 30.6
15:55 1014 29.94 843 24.89 15.6 60.2 33 -0.7 30.8
16:00 1014 29.94 843 24.89 15.5 59.8 32 -0.9 30.4
16:05 1014 29.94 843 24.89 15.3 59.6 35 -0.2 31.7
16:10 1013 29.91 843 24.89 15 58.9 35 -0.4 31.2
16:15 1013 29.91 843 24.89 14.7 58.5 36 -0.2 31.7
16:20 1013 29.91 843 24.89 14.5 58.2 36 -0.3 31.5
16:25 1013 29.91 843 24.89 14.5 58 35 -0.6 30.9
16:30 1013 29.91 843 24.89 14.3 57.8 36 -0.6 31
16:35 1013 29.91 843 24.89 14.2 57.6 36 -0.7 30.8
16:40 1014 29.94 843 24.89 14 57.1 37 -0.4 31.2
16:45 1014 29.94 843 24.89 13.9 57 37 -0.6 31
16:50 1014 29.94 843 24.89 13.8 56.8 36 -0.8 30.6
16:55 1014 29.94 843 24.89 13.9 57 36 -0.9 30.4
17:00 1014 29.94 843 24.89 14 57.2 35 -1.2 29.8
17:05 1014 29.94 843 24.89 13.8 56.9 37 -0.6 30.9
17:10 1014 29.94 843 24.89 13.8 56.9 35 -1.3 29.7
17:15 1014 29.94 843 24.89 13.8 56.8 36 -1 30.2
17:20 1014 29.94 843 24.89 13.7 56.7 36 -1.1 30
17:25 1014 29.94 843 24.89 13.7 56.6 35 -1.3 29.6
17:30 1014 29.94 843 24.89 13.8 56.8 36 -1 30.3
17:35 1014 29.94 843 24.89 13.9 57.1 35 -1.3 29.7
17:40 1014 29.94 843 24.89 13.8 56.8 35 -1.3 29.6
17:45 1014 29.94 843 24.89 13.7 56.7 34 -1.7 29
17:50 1014 29.94 843 24.89 13.8 56.8 34 -1.6 29.1
17:55 1014 29.94 843 24.89 13.7 56.6 36 -1.2 29.8
18:00 1014 29.94 843 24.89 13.7 56.6 35 -1.3 29.6
18:05 1014 29.94 843 24.89 13.6 56.4 35 -1.4 29.4
18:10 1014 29.94 843 24.89 13.7 56.6 35 -1.5 29.3
18:15 1014 29.94 843 24.89 13.7 56.6 36 -1.2 29.8
18:20 1014 29.94 843 24.89 13.8 56.8 37 -0.8 30.6
18:25 1014 29.94 843 24.89 13.8 56.8 36 -1.1 30
18:30 1014 29.94 843 24.89 13.7 56.6 35 -1.3 29.6
18:35 1014 29.94 843 24.89 13.7 56.7 35 -1.4 29.5
18:40 1014 29.94 843 24.89 13.8 56.8 35 -1.3 29.6
18:45 1014 29.94 843 24.89 13.7 56.7 36 -1.1 30.1
18:50 1014 29.94 843 24.89 13.7 56.7 35 -1.5 29.2
18:55 1014 29.94 843 24.89 13.6 56.4 35 -1.7 29
19:00 1014 29.94 843 24.89 13.4 56.1 35 -1.5 29.3
19:05 1014 29.94 843 24.89 13.1 55.6 37 -1.2 29.8
19:10 1014 29.94 843 24.89 13 55.5 37 -1.1 30
19:15 1014 29.94 843 24.89 12.9 55.2 38 -1.2 29.9
19:20 1014 29.94 843 24.89 12.8 55 38 -1.1 30.1
19:25 1014 29.94 843 24.89 12.7 54.9 38 -1.1 29.9
19:30 1014 29.94 843 24.89 12.6 54.7 38 -1.1 30
19:35 1014 29.94 843 24.89 12.5 54.6 39 -1 30.2
19:40 1014 29.94 843 24.89 12.5 54.6 39 -0.9 30.4
19:45 1014 29.94 843 24.89 12.5 54.4 40 -0.8 30.5
19:50 1014 29.94 843 24.89 12.4 54.2 40 -0.8 30.6
19:55 1014 29.94 843 24.89 12.4 54.3 40 -0.7 30.8
20:00 1014 29.94 843 24.89 12.3 54.2 41 -0.6 30.9
20:05 1014 29.94 843 24.89 12.2 54 41 -0.6 31
20:10 1014 29.94 844 24.92 12.3 54.1 41 -0.6 31
20:15 1014 29.94 844 24.92 12.3 54.2 41 -0.5 31.1
20:20 1015 29.97 844 24.92 12.1 53.7 47 1.1 33.9
20:25 1015 29.97 844 24.92 11 51.9 48 0.4 32.7
20:30 1015 29.97 844 24.92 11 51.8 46 -0 32
20:35 1015 29.97 844 24.92 11.1 52 45 -0.3 31.4
20:40 1015 29.97 844 24.92 11.4 52.4 44 -0.3 31.4
20:45 1015 29.97 844 24.92 11.5 52.6 45 0.1 32.3
20:50 1015 29.97 844 24.92 11.2 52.2 48 0.6 33.1
20:55 1015 29.97 844 24.92 11 51.7 50 0.9 33.6
21:00 1015 29.97 844 24.92 10.7 51.2 50 0.6 33.1
21:05 1015 29.97 844 24.92 10.5 51 50 0.5 32.9
21:10 1015 29.97 844 24.92 10.5 50.9 49 0.4 32.6
21:15 1015 29.97 844 24.92 10.7 51.3 48 0.1 32.2
21:20 1014 29.94 844 24.92 10.8 51.4 47 -0 31.9
21:25 1015 29.97 844 24.92 10.7 51.3 47 -0.1 31.9
21:30 1015 29.97 844 24.92 10.8 51.4 48 0.4 32.6
21:35 1015 29.97 844 24.92 10.4 50.6 50 0.5 32.9
21:40 1014 29.94 844 24.92 10.1 50.3 50 0.1 32.2
21:45 1014 29.94 844 24.92 9.9 49.9 52 0.5 32.9
21:50 1014 29.94 844 24.92 9.6 49.3 52 0.2 32.4
21:55 1014 29.94 844 24.92 9.6 49.2 54 0.7 33.3
22:00 1014 29.94 844 24.92 9.4 49 53 0.3 32.5
22:05 1014 29.94 844 24.92 9.5 49 52 0.1 32.2
22:10 1014 29.94 844 24.92 9.5 49.1 51 -0.2 31.7
22:15 1014 29.94 844 24.92 9.8 49.7 48 -0.7 30.7
22:20 1014 29.94 844 24.92 10.2 50.3 47 -0.7 30.8
22:25 1014 29.94 844 24.92 10.2 50.3 47 -0.5 31
22:30 1014 29.94 844 24.92 10.3 50.5 47 -0.6 31
22:35 1014 29.94 844 24.92 10.2 50.4 48 -0.3 31.4
22:40 1014 29.94 844 24.92 10.1 50.2 48 -0.4 31.3
22:45 1014 29.94 844 24.92 10 50 48 -0.4 31.3
22:50 1014 29.94 844 24.92 9.8 49.7 50 -0.2 31.7
22:55 1014 29.94 844 24.92 9.5 49.1 53 0.3 32.5
23:00 1014 29.94 843 24.89 8.9 48 55 0.3 32.6
23:05 1014 29.94 843 24.89 8.6 47.5 56 0.3 32.6
23:10 1014 29.94 843 24.89 8.6 47.6 55 0.1 32.2
23:15 1014 29.94 843 24.89 8.5 47.3 57 0.4 32.8
23:20 1014 29.94 843 24.89 8.4 47.1 56 0.2 32.3
23:25 1014 29.94 843 24.89 8.6 47.4 55 0 32
23:30 1014 29.94 843 24.89 8.4 47.1 55 -0.1 31.7
23:35 1014 29.94 843 24.89 8.4 47.2 54 -0.2 31.6
23:40 1014 29.94 843 24.89 8.5 47.4 56 0.2 32.4
23:45 1014 29.94 843 24.89 8.2 46.8 58 0.5 33
23:50 1014 29.94 843 24.89 7.9 46.3 58 0.2 32.4
23:55 1014 29.94 843 24.89 7.8 46.1 58 0.2 32.4
24:00 1014 29.94 843 24.89 7.7 45.8 58 0.1 32.2